»·PEaware :: N26DC KPMD-KSNA

N26DC :: KPMD-KSNA

FLIGHT INFORMATION

Flight Status: Arrived
Operator: Privately registered:
United States
More flights under this callsign
Pilot: Dan C. (28231)
Aircraft: Unknown
(B429)
More flights by this aircraft type
Origin: KPMD Palmdale AF Plant 42
United States
Destination: KSNA John Wayne-Orange Co
United States
More flights between these airports :: More routes between these airports
Route: PMD V201 BERRI V459 SLI
File this flight plan on PilotEdge
Remarks: EDWP2
Altitude:
(Current/Filed)
9,000ft
Speed:
(Current/Filed)
150kts
Departed: 07-Apr-20 02:05 PM
Arrived: 07-Apr-20 02:51 PM
Distance/Time
Traveled:
58nm/0:46
Distance/Time
To Go:
Arrived

Flight Plot

Page will automatically refresh every two minutes.


Map Options




Map Legend


Flown Route
Filed Route
Departure Airport
Arrival Airport
Navaid (VOR, NDB)
Fix

Horizontal Profiles

Position Reports

Time Latitude Longitude Heading Altitude Ground
Speed
07-Apr-20 14:03 34.699310 -118.041300 6 6327ft 163kts
07-Apr-20 14:04 34.714514 -118.087628 241 6347ft 174kts
07-Apr-20 14:05 34.678200 -118.078311 128 6358ft 160kts
07-Apr-20 14:06 34.649206 -118.036798 120 6347ft 159kts
07-Apr-20 14:07 34.674259 -118.003106 25 6546ft 150kts
07-Apr-20 14:08 34.691911 -118.035799 274 7446ft 161kts
07-Apr-20 14:09 34.658401 -118.052967 160 7439ft 158kts
07-Apr-20 14:10 34.624492 -118.023811 140 7381ft 158kts
07-Apr-20 14:11 34.600067 -118.041910 302 7465ft 170kts
07-Apr-20 14:12 34.639196 -118.070357 310 7432ft 177kts
07-Apr-20 14:13 34.624630 -118.110944 196 7748ft 142kts
07-Apr-20 14:14 34.584703 -118.112384 175 7798ft 151kts
07-Apr-20 14:15 34.550357 -118.125106 189 9023ft 115kts
07-Apr-20 14:16 34.513318 -118.137222 188 9028ft 148kts
07-Apr-20 14:17 34.468707 -118.151550 190 9023ft 168kts
07-Apr-20 14:18 34.425334 -118.173223 198 9025ft 167kts
07-Apr-20 14:19 34.382930 -118.195789 197 9023ft 164kts
07-Apr-20 14:20 34.342341 -118.217228 197 9093ft 160kts
07-Apr-20 14:21 34.302149 -118.238424 197 9087ft 161kts
07-Apr-20 14:22 34.260911 -118.260171 197 9080ft 161kts
07-Apr-20 14:23 34.219799 -118.281824 197 9074ft 160kts
07-Apr-20 14:24 34.180804 -118.283925 153 9073ft 150kts
07-Apr-20 14:25 34.142948 -118.262104 152 9075ft 150kts
07-Apr-20 14:26 34.105336 -118.240388 152 9076ft 151kts
07-Apr-20 14:27 34.067115 -118.218243 151 9040ft 152kts
07-Apr-20 14:28 34.029174 -118.196304 150 9038ft 153kts
07-Apr-20 14:29 33.991320 -118.174459 150 9034ft 154kts
07-Apr-20 14:30 33.952328 -118.151981 150 9027ft 155kts
07-Apr-20 14:31 33.916117 -118.131130 150 9020ft 155kts
07-Apr-20 14:32 33.876125 -118.107725 151 8064ft 186kts
07-Apr-20 14:33 33.829687 -118.081171 151 5301ft 178kts
07-Apr-20 14:34 33.798635 -118.063846 147 5036ft 114kts
07-Apr-20 14:35 33.761763 -118.035687 107 4964ft 147kts
07-Apr-20 14:36 33.782886 -117.995440 52 4442ft 167kts
07-Apr-20 14:37 33.806852 -117.954794 50 3169ft 143kts
07-Apr-20 14:38 33.826130 -117.928715 57 2902ft 64kts
07-Apr-20 14:39 33.845891 -117.901892 46 3256ft 166kts
07-Apr-20 14:40 33.877807 -117.862863 50 3155ft 136kts
07-Apr-20 14:41 33.899267 -117.829067 56 3069ft 118kts
07-Apr-20 14:42 33.900658 -117.794311 111 3076ft 114kts
07-Apr-20 14:43 33.878099 -117.773421 181 3080ft 122kts
07-Apr-20 14:44 33.844055 -117.776091 180 3081ft 122kts
07-Apr-20 14:45 33.811432 -117.782915 209 3072ft 125kts
07-Apr-20 14:46 33.779187 -117.803747 206 2631ft 144kts
07-Apr-20 14:47 33.742182 -117.827140 208 1668ft 160kts
07-Apr-20 14:48 33.714257 -117.844465 216 722ft 93kts
07-Apr-20 14:49 33.692283 -117.858604 201 405ft 69kts
07-Apr-20 14:50 33.677776 -117.867247 161 62ft 15kts
07-Apr-20 14:51 33.677296 -117.866561 115 61ft 0kts
07-Apr-20 14:52 33.677295 -117.866560 115 61ft 0kts
07-Apr-20 14:53 33.675597 -117.865528 206 61ft 6kts
07-Apr-20 14:54 33.674194 -117.865032 100 61ft 3kts
07-Apr-20 14:55 33.674531 -117.864934 64 62ft 1kts
07-Apr-20 14:56 33.674570 -117.864838 63 62ft 0kts
07-Apr-20 14:57 33.674570 -117.864838 63 62ft 0kts
07-Apr-20 14:58 33.674570 -117.864838 63 62ft 0kts

Navigation Log

Ident Type
Flight plan parsing failed, navigation log unavailable